Jefferson, NC

4:57 PM EST on November 11, 2019 (GMT -0500)
Ashe County

Weather History for KGEV - July, 2019

Change the Weather History Date:

Sunday, July 14, 2019

  Actual Average Record
Temperature  
Mean Temperature 74 °F -  
Max Temperature 80 °F 81 °F 90 °F (1993)
Min Temperature 68 °F 60 °F 50 °F (1969)
Cooling Degree Days 9    
Growing Degree Days 24 (Base 50)    
Moisture  
Dew Point 63 °F    
Average Humidity 71    
Maximum Humidity 88    
Minimum Humidity 46    
Precipitation  
Precipitation 0.00 in - - ()
Sea Level Pressure  
Sea Level Pressure 30.24 in    
Wind  
Wind Speed 10 mph (WNW)    
Max Wind Speed 17 mph    
Max Gust Speed 30 mph    
Visibility 10 miles    
Events      
Averages and records for this station are not official NWS values.
T = Trace of Precipitation, MM = Missing Value Source: NWS Daily Summary

Daily Weather History Graph

Daily Weather History Graph

Search for Another Location

Airport or City:

Astronomy

Jul. 14, 2019 Rise Set
Actual Time 6:18 AM EDT 8:44 PM EDT
Civil Twilight 5:48 AM EDT 9:13 PM EDT
Nautical Twilight 5:12 AM EDT 9:50 PM EDT
Astronomical Twilight 4:31 AM EDT 10:30 PM EDT
Moon 7:05 PM EDT (7/14) 4:18 AM EDT (7/14)
Length of Visible Light 15h 25m
Length of Day
14h 25m
Waxing Gibbous, 95% of the Moon is Illuminated
Jul 14
Waxing Gibbous
Jul 16
Full
Jul 24
Last Quarter
Jul 31
New
Aug 7
First Quarter

Hourly Weather History & Observations

Time (EDT) Temp. Heat Index Dew Point Humidity Pressure Visibility Wind Dir Wind Speed Gust Speed Precip Events Conditions
12:15 AM 71.8 °F - 67.3 °F 86% 30.22 in 10.0 mi West 11.5 mph - N/A   Scattered Clouds
12:35 AM 71.6 °F - 67.1 °F 86% 30.21 in 10.0 mi WNW 12.7 mph 19.6 mph N/A   Scattered Clouds
12:55 AM 71.2 °F - 66.7 °F 86% 30.20 in 10.0 mi WNW 13.8 mph 17.3 mph N/A   Scattered Clouds
1:15 AM 71.4 °F - 66.6 °F 85% 30.20 in 10.0 mi WNW 13.8 mph 24.2 mph N/A   Scattered Clouds
1:35 AM 71.1 °F - 66.2 °F 85% 30.20 in 10.0 mi WNW 16.1 mph 25.3 mph N/A   Mostly Cloudy
1:55 AM 70.7 °F - 65.3 °F 83% 30.20 in 10.0 mi West 13.8 mph 27.6 mph N/A   Scattered Clouds
2:15 AM 70.0 °F - 65.5 °F 86% 30.19 in 10.0 mi West 13.8 mph 24.2 mph N/A   Scattered Clouds
2:35 AM 69.8 °F - 65.3 °F 86% 30.19 in 10.0 mi West 16.1 mph 21.9 mph N/A   Mostly Cloudy
2:55 AM 69.1 °F - 64.9 °F 87% 30.19 in 10.0 mi WNW 12.7 mph 24.2 mph N/A   Overcast
3:15 AM 68.5 °F - 64.4 °F 87% 30.19 in 10.0 mi WNW 15.0 mph - N/A   Mostly Cloudy
3:35 AM 68.4 °F - 64.4 °F 87% 30.18 in 10.0 mi WNW 17.3 mph 29.9 mph N/A   Mostly Cloudy
3:55 AM 68.2 °F - 64.4 °F 88% 30.19 in 10.0 mi WNW 17.3 mph 26.5 mph N/A   Mostly Cloudy
4:15 AM 68.2 °F - 64.0 °F 87% 30.19 in 10.0 mi WNW 15.0 mph 24.2 mph N/A   Mostly Cloudy
4:35 AM 68.4 °F - 64.2 °F 87% 30.20 in 10.0 mi WNW 15.0 mph 20.7 mph N/A   Mostly Cloudy
4:55 AM 68.2 °F - 64.2 °F 87% 30.20 in 10.0 mi WNW 12.7 mph 18.4 mph N/A   Mostly Cloudy
5:15 AM 68.4 °F - 64.0 °F 86% 30.20 in 10.0 mi WNW 3.5 mph 24.2 mph N/A   Overcast
5:35 AM 68.5 °F - 63.9 °F 85% 30.20 in 10.0 mi West 3.5 mph - N/A   Mostly Cloudy
5:55 AM 68.9 °F - 63.9 °F 84% 30.21 in 10.0 mi Calm Calm - N/A   Mostly Cloudy
6:15 AM 68.7 °F - 63.7 °F 84% 30.22 in 10.0 mi WNW 5.8 mph - N/A   Mostly Cloudy
6:35 AM 68.5 °F - 63.7 °F 84% 30.23 in 10.0 mi WNW 4.6 mph - N/A   Mostly Cloudy
6:55 AM 69.3 °F - 63.7 °F 82% 30.23 in 10.0 mi WNW 3.5 mph - N/A   Mostly Cloudy
7:15 AM 69.8 °F - 63.7 °F 81% 30.24 in 10.0 mi NW 6.9 mph - N/A   Scattered Clouds
7:35 AM 69.3 °F - 63.5 °F 82% 30.24 in 10.0 mi WNW 8.1 mph 16.1 mph N/A   Scattered Clouds
7:55 AM 68.9 °F - 63.5 °F 83% 30.24 in 10.0 mi WNW 8.1 mph 16.1 mph N/A   Scattered Clouds
8:15 AM 69.3 °F - 63.5 °F 82% 30.25 in 10.0 mi NW 9.2 mph 16.1 mph N/A   Scattered Clouds
8:35 AM 69.3 °F - 63.5 °F 82% 30.26 in 10.0 mi West 3.5 mph - N/A   Scattered Clouds
8:55 AM 70.9 °F - 63.9 °F 78% 30.26 in 10.0 mi NW 3.5 mph - N/A   Scattered Clouds
9:15 AM 71.6 °F - 63.7 °F 76% 30.27 in 10.0 mi NW 10.4 mph - N/A   Scattered Clouds
9:35 AM 72.5 °F - 63.7 °F 74% 30.27 in 10.0 mi WNW 13.8 mph 20.7 mph N/A   Scattered Clouds
9:55 AM 72.5 °F - 63.7 °F 74% 30.27 in 10.0 mi West 10.4 mph 16.1 mph N/A   Clear
10:15 AM 73.2 °F - 63.1 °F 71% 30.27 in 10.0 mi WNW 8.1 mph 17.3 mph N/A   Clear
10:35 AM 74.5 °F - 64.4 °F 71% 30.27 in 10.0 mi NW 12.7 mph 16.1 mph N/A   Scattered Clouds
10:55 AM 74.7 °F - 63.5 °F 68% 30.28 in 10.0 mi NW 10.4 mph 16.1 mph N/A   Clear
11:15 AM 75.4 °F - 63.0 °F 65% 30.28 in 10.0 mi NW 6.9 mph 17.3 mph N/A   Clear
11:35 AM 76.1 °F - 62.2 °F 62% 30.29 in 10.0 mi NW 10.4 mph 17.3 mph N/A   Clear
11:55 AM 76.6 °F - 63.0 °F 62% 30.28 in 10.0 mi WNW 10.4 mph - N/A   Clear
12:15 PM 76.8 °F - 62.2 °F 61% 30.28 in 10.0 mi NW 10.4 mph 16.1 mph N/A   Scattered Clouds
12:35 PM 77.0 °F - 62.1 °F 60% 30.27 in 10.0 mi NW 10.4 mph 16.1 mph N/A   Scattered Clouds
12:55 PM 78.1 °F - 62.8 °F 59% 30.27 in 10.0 mi NW 6.9 mph - N/A   Scattered Clouds
1:15 PM 78.6 °F - 61.5 °F 56% 30.27 in 10.0 mi NW 10.4 mph 17.3 mph N/A   Scattered Clouds
1:35 PM 78.6 °F - 61.2 °F 55% 30.27 in 10.0 mi NNW 9.2 mph - N/A   Scattered Clouds
1:55 PM 79.0 °F - 60.4 °F 53% 30.27 in 10.0 mi NW 10.4 mph - N/A   Clear
2:15 PM 79.9 °F - 59.4 °F 49% 30.26 in 10.0 mi WNW 4.6 mph - N/A   Clear
2:35 PM 79.3 °F - 60.3 °F 52% 30.26 in 10.0 mi NW 10.4 mph - N/A   Clear
2:55 PM 79.7 °F - 60.3 °F 51% 30.25 in 10.0 mi West 6.9 mph - N/A   Clear
3:15 PM 80.6 °F 81.1 °F 59.0 °F 48% 30.25 in 10.0 mi WNW 9.2 mph - N/A   Clear
3:35 PM 80.2 °F 81.0 °F 60.1 °F 50% 30.25 in 10.0 mi WNW 6.9 mph - N/A   Clear
3:55 PM 80.6 °F 80.9 °F 58.1 °F 46% 30.24 in 10.0 mi West 5.8 mph - N/A   Clear
4:15 PM 80.8 °F 81.3 °F 59.4 °F 48% 30.24 in 10.0 mi NNW 5.8 mph - N/A   Clear
4:35 PM 80.6 °F 80.9 °F 58.3 °F 46% 30.24 in 10.0 mi NNW 5.8 mph - N/A   Clear
4:55 PM 80.6 °F 81.6 °F 61.5 °F 52% 30.23 in 10.0 mi WNW 8.1 mph - N/A   Clear
5:15 PM 80.1 °F 81.2 °F 61.9 °F 54% 30.23 in 10.0 mi NNW 6.9 mph - N/A   Clear
5:35 PM 79.5 °F - 61.7 °F 54% 30.23 in 10.0 mi NW 6.9 mph - N/A   Clear
5:55 PM 79.0 °F - 62.4 °F 57% 30.23 in 10.0 mi NW 6.9 mph - N/A   Clear
6:15 PM 79.5 °F - 62.1 °F 55% 30.23 in 10.0 mi Calm Calm - N/A   Scattered Clouds
6:35 PM 79.3 °F - 62.4 °F 56% 30.24 in 10.0 mi WNW 5.8 mph - N/A   Scattered Clouds
6:55 PM 78.8 °F - 61.9 °F 56% 30.24 in 10.0 mi West 6.9 mph - N/A   Scattered Clouds
7:15 PM 77.9 °F - 61.3 °F 57% 30.24 in 10.0 mi WNW 8.1 mph - N/A   Clear
7:35 PM 76.8 °F - 61.3 °F 59% 30.24 in 10.0 mi WNW 6.9 mph - N/A   Clear
7:55 PM 76.1 °F - 61.7 °F 61% 30.24 in 10.0 mi NW 4.6 mph - N/A   Clear
8:15 PM 75.7 °F - 62.6 °F 64% 30.24 in 10.0 mi WNW 5.8 mph - N/A   Clear
8:35 PM 75.4 °F - 64.4 °F 69% 30.24 in 10.0 mi West 8.1 mph - N/A   Clear
8:55 PM 74.7 °F - 65.5 °F 73% 30.24 in 10.0 mi WNW 8.1 mph - N/A   Clear
9:15 PM 73.8 °F - 65.7 °F 76% 30.24 in 10.0 mi West 10.4 mph - N/A   Clear
9:35 PM 73.4 °F - 66.2 °F 78% 30.25 in 10.0 mi WNW 10.4 mph - N/A   Clear
9:55 PM 73.2 °F - 65.5 °F 77% 30.26 in 10.0 mi WNW 8.1 mph - N/A   Clear
10:15 PM 72.3 °F - 65.7 °F 79% 30.27 in 10.0 mi NW 5.8 mph - N/A   Clear
10:35 PM 71.8 °F - 65.1 °F 79% 30.27 in 10.0 mi NW 6.9 mph - N/A   Clear
10:55 PM 71.6 °F - 64.9 °F 79% 30.27 in 10.0 mi NW 6.9 mph - N/A   Clear
11:15 PM 71.6 °F - 64.8 °F 79% 30.27 in 10.0 mi NNW 4.6 mph - N/A   Clear
11:35 PM 69.8 °F - 64.9 °F 84% 30.27 in 10.0 mi NNW 3.5 mph - N/A   Clear
11:55 PM 69.3 °F - 64.8 °F 86% 30.27 in 10.0 mi NW 5.8 mph - N/A   Clear